sensor_id;sensor_type;location;lat;lon;timestamp;P1;durP1;ratioP1;P2;durP2;ratioP2
77466;SDS011;66564;42.482;25.548;2023-04-29T00:00:03;11.63;;;5.65;;
77466;SDS011;66564;42.482;25.548;2023-04-29T00:02:33;9.63;;;5.45;;
77466;SDS011;66564;42.482;25.548;2023-04-29T00:04:58;9.82;;;5.38;;
77466;SDS011;66564;42.482;25.548;2023-04-29T00:07:24;11.18;;;5.15;;
77466;SDS011;66564;42.482;25.548;2023-04-29T00:09:50;11.48;;;5.55;;
77466;SDS011;66564;42.482;25.548;2023-04-29T00:12:15;11.38;;;5.45;;
77466;SDS011;66564;42.482;25.548;2023-04-29T00:14:41;9.18;;;5.38;;
77466;SDS011;66564;42.482;25.548;2023-04-29T00:17:07;10.15;;;5.55;;
77466;SDS011;66564;42.482;25.548;2023-04-29T00:19:33;10.82;;;5.70;;
77466;SDS011;66564;42.482;25.548;2023-04-29T00:21:59;11.25;;;5.25;;
77466;SDS011;66564;42.482;25.548;2023-04-29T00:24:25;23.38;;;10.85;;
77466;SDS011;66564;42.482;25.548;2023-04-29T00:26:51;35.35;;;12.60;;
77466;SDS011;66564;42.482;25.548;2023-04-29T00:29:16;45.75;;;16.67;;
77466;SDS011;66564;42.482;25.548;2023-04-29T00:31:43;21.63;;;8.02;;
77466;SDS011;66564;42.482;25.548;2023-04-29T00:34:08;12.23;;;6.10;;
77466;SDS011;66564;42.482;25.548;2023-04-29T00:36:34;11.88;;;5.65;;
77466;SDS011;66564;42.482;25.548;2023-04-29T00:39:00;12.82;;;5.38;;
77466;SDS011;66564;42.482;25.548;2023-04-29T00:41:28;14.27;;;5.93;;
77466;SDS011;66564;42.482;25.548;2023-04-29T00:43:54;8.00;;;5.60;;
77466;SDS011;66564;42.482;25.548;2023-04-29T00:46:20;11.30;;;6.32;;
77466;SDS011;66564;42.482;25.548;2023-04-29T00:48:46;12.30;;;5.57;;
77466;SDS011;66564;42.482;25.548;2023-04-29T00:51:11;10.13;;;5.78;;
77466;SDS011;66564;42.482;25.548;2023-04-29T00:53:38;11.00;;;6.25;;
77466;SDS011;66564;42.482;25.548;2023-04-29T00:56:03;14.15;;;6.10;;
77466;SDS011;66564;42.482;25.548;2023-04-29T00:58:31;11.10;;;6.60;;
77466;SDS011;66564;42.482;25.548;2023-04-29T01:01:02;11.05;;;6.82;;
77466;SDS011;66564;42.482;25.548;2023-04-29T01:03:28;15.38;;;6.65;;
77466;SDS011;66564;42.482;25.548;2023-04-29T01:06:18;12.38;;;6.88;;
77466;SDS011;66564;42.482;25.548;2023-04-29T01:11:57;11.73;;;6.35;;
77466;SDS011;66564;42.482;25.548;2023-04-29T01:14:32;11.40;;;5.95;;
77466;SDS011;66564;42.482;25.548;2023-04-29T01:17:10;15.73;;;6.18;;
77466;SDS011;66564;42.482;25.548;2023-04-29T01:19:54;15.02;;;7.35;;
77466;SDS011;66564;42.482;25.548;2023-04-29T01:22:22;9.90;;;6.22;;
77466;SDS011;66564;42.482;25.548;2023-04-29T01:24:48;10.30;;;6.70;;
77466;SDS011;66564;42.482;25.548;2023-04-29T01:36:33;12.30;;;5.55;;
77466;SDS011;66564;42.482;25.548;2023-04-29T01:42:21;10.75;;;6.45;;
77466;SDS011;66564;42.482;25.548;2023-04-29T01:44:52;11.35;;;6.20;;
77466;SDS011;66564;42.482;25.548;2023-04-29T01:47:20;11.13;;;5.70;;
77466;SDS011;66564;42.482;25.548;2023-04-29T01:49:46;12.18;;;6.25;;
77466;SDS011;66564;42.482;25.548;2023-04-29T01:52:13;9.07;;;5.82;;
77466;SDS011;66564;42.482;25.548;2023-04-29T01:54:39;11.70;;;6.75;;
77466;SDS011;66564;42.482;25.548;2023-04-29T01:57:04;10.88;;;6.68;;
77466;SDS011;66564;42.482;25.548;2023-04-29T01:59:29;9.85;;;5.90;;
77466;SDS011;66564;42.482;25.548;2023-04-29T02:01:55;13.45;;;6.43;;
77466;SDS011;66564;42.482;25.548;2023-04-29T02:04:23;11.23;;;6.00;;
77466;SDS011;66564;42.482;25.548;2023-04-29T02:06:52;12.32;;;6.15;;
77466;SDS011;66564;42.482;25.548;2023-04-29T02:09:18;12.07;;;5.97;;
77466;SDS011;66564;42.482;25.548;2023-04-29T02:11:43;15.77;;;6.80;;
77466;SDS011;66564;42.482;25.548;2023-04-29T02:14:09;13.68;;;5.82;;
77466;SDS011;66564;42.482;25.548;2023-04-29T02:16:35;12.15;;;6.30;;
77466;SDS011;66564;42.482;25.548;2023-04-29T02:19:00;12.93;;;7.15;;
77466;SDS011;66564;42.482;25.548;2023-04-29T02:21:26;15.32;;;6.28;;
77466;SDS011;66564;42.482;25.548;2023-04-29T02:23:51;18.77;;;6.93;;
77466;SDS011;66564;42.482;25.548;2023-04-29T02:26:18;13.73;;;6.13;;
77466;SDS011;66564;42.482;25.548;2023-04-29T02:28:44;11.55;;;6.25;;
77466;SDS011;66564;42.482;25.548;2023-04-29T02:31:09;15.00;;;7.07;;
77466;SDS011;66564;42.482;25.548;2023-04-29T02:33:35;11.05;;;6.20;;
77466;SDS011;66564;42.482;25.548;2023-04-29T02:36:00;9.45;;;5.53;;
77466;SDS011;66564;42.482;25.548;2023-04-29T02:38:26;10.00;;;6.15;;
77466;SDS011;66564;42.482;25.548;2023-04-29T02:40:51;7.80;;;5.50;;
77466;SDS011;66564;42.482;25.548;2023-04-29T02:43:17;15.52;;;6.03;;
77466;SDS011;66564;42.482;25.548;2023-04-29T02:45:42;36.70;;;6.80;;
77466;SDS011;66564;42.482;25.548;2023-04-29T02:48:08;12.35;;;5.95;;
77466;SDS011;66564;42.482;25.548;2023-04-29T02:50:34;15.57;;;6.15;;
77466;SDS011;66564;42.482;25.548;2023-04-29T02:52:59;9.77;;;5.78;;
77466;SDS011;66564;42.482;25.548;2023-04-29T02:55:25;9.77;;;5.78;;
77466;SDS011;66564;42.482;25.548;2023-04-29T02:57:51;11.00;;;5.93;;
77466;SDS011;66564;42.482;25.548;2023-04-29T03:00:16;10.50;;;5.65;;
77466;SDS011;66564;42.482;25.548;2023-04-29T03:02:42;8.65;;;5.63;;
77466;SDS011;66564;42.482;25.548;2023-04-29T03:05:07;11.20;;;5.70;;
77466;SDS011;66564;42.482;25.548;2023-04-29T03:07:33;11.35;;;6.53;;
77466;SDS011;66564;42.482;25.548;2023-04-29T03:09:59;11.65;;;6.47;;
77466;SDS011;66564;42.482;25.548;2023-04-29T03:12:24;10.25;;;5.93;;
77466;SDS011;66564;42.482;25.548;2023-04-29T03:14:50;16.08;;;5.80;;
77466;SDS011;66564;42.482;25.548;2023-04-29T03:17:18;15.57;;;6.40;;
77466;SDS011;66564;42.482;25.548;2023-04-29T03:19:44;12.95;;;6.07;;
77466;SDS011;66564;42.482;25.548;2023-04-29T03:22:09;12.65;;;6.80;;
77466;SDS011;66564;42.482;25.548;2023-04-29T03:24:36;17.30;;;7.10;;
77466;SDS011;66564;42.482;25.548;2023-04-29T03:27:02;11.13;;;6.03;;
77466;SDS011;66564;42.482;25.548;2023-04-29T03:29:29;12.82;;;6.28;;
77466;SDS011;66564;42.482;25.548;2023-04-29T03:31:55;9.30;;;6.28;;
77466;SDS011;66564;42.482;25.548;2023-04-29T03:34:21;9.88;;;5.22;;
77466;SDS011;66564;42.482;25.548;2023-04-29T03:36:46;12.32;;;6.53;;
77466;SDS011;66564;42.482;25.548;2023-04-29T03:39:12;15.63;;;6.35;;
77466;SDS011;66564;42.482;25.548;2023-04-29T03:41:37;9.35;;;6.00;;
77466;SDS011;66564;42.482;25.548;2023-04-29T03:44:03;10.80;;;6.28;;
77466;SDS011;66564;42.482;25.548;2023-04-29T03:46:29;10.50;;;6.53;;
77466;SDS011;66564;42.482;25.548;2023-04-29T03:48:55;13.23;;;6.82;;
77466;SDS011;66564;42.482;25.548;2023-04-29T03:51:22;9.65;;;6.35;;
77466;SDS011;66564;42.482;25.548;2023-04-29T03:53:48;14.02;;;6.68;;
77466;SDS011;66564;42.482;25.548;2023-04-29T03:56:14;19.55;;;7.47;;
77466;SDS011;66564;42.482;25.548;2023-04-29T03:58:40;13.73;;;6.28;;
77466;SDS011;66564;42.482;25.548;2023-04-29T04:01:06;9.75;;;6.40;;
77466;SDS011;66564;42.482;25.548;2023-04-29T04:03:31;50.88;;;21.70;;
77466;SDS011;66564;42.482;25.548;2023-04-29T04:05:58;50.20;;;17.67;;
77466;SDS011;66564;42.482;25.548;2023-04-29T04:08:24;32.20;;;15.77;;
77466;SDS011;66564;42.482;25.548;2023-04-29T04:10:49;23.38;;;11.95;;
77466;SDS011;66564;42.482;25.548;2023-04-29T04:13:15;23.20;;;11.13;;
77466;SDS011;66564;42.482;25.548;2023-04-29T04:15:49;16.70;;;8.80;;
77466;SDS011;66564;42.482;25.548;2023-04-29T04:18:16;13.48;;;7.60;;
77466;SDS011;66564;42.482;25.548;2023-04-29T04:20:41;15.23;;;7.82;;
77466;SDS011;66564;42.482;25.548;2023-04-29T04:23:07;14.07;;;7.57;;
77466;SDS011;66564;42.482;25.548;2023-04-29T04:25:32;16.20;;;9.00;;
77466;SDS011;66564;42.482;25.548;2023-04-29T04:27:58;24.15;;;11.20;;
77466;SDS011;66564;42.482;25.548;2023-04-29T04:30:34;23.40;;;12.02;;
77466;SDS011;66564;42.482;25.548;2023-04-29T04:33:00;23.80;;;13.45;;
77466;SDS011;66564;42.482;25.548;2023-04-29T04:35:26;22.92;;;11.43;;
77466;SDS011;66564;42.482;25.548;2023-04-29T04:37:53;19.77;;;9.13;;
77466;SDS011;66564;42.482;25.548;2023-04-29T04:40:51;15.95;;;8.02;;
77466;SDS011;66564;42.482;25.548;2023-04-29T04:43:32;13.27;;;8.05;;
77466;SDS011;66564;42.482;25.548;2023-04-29T04:45:58;20.38;;;8.75;;
77466;SDS011;66564;42.482;25.548;2023-04-29T04:48:23;16.73;;;8.52;;
77466;SDS011;66564;42.482;25.548;2023-04-29T04:50:49;17.70;;;9.50;;
77466;SDS011;66564;42.482;25.548;2023-04-29T04:53:15;19.23;;;9.55;;
77466;SDS011;66564;42.482;25.548;2023-04-29T04:55:41;14.15;;;8.38;;
77466;SDS011;66564;42.482;25.548;2023-04-29T04:58:06;15.18;;;8.23;;
77466;SDS011;66564;42.482;25.548;2023-04-29T05:00:32;14.45;;;8.52;;
77466;SDS011;66564;42.482;25.548;2023-04-29T05:02:57;16.15;;;10.05;;
77466;SDS011;66564;42.482;25.548;2023-04-29T05:05:23;20.65;;;10.40;;
77466;SDS011;66564;42.482;25.548;2023-04-29T05:07:48;46.95;;;10.98;;
77466;SDS011;66564;42.482;25.548;2023-04-29T05:10:14;17.50;;;9.05;;
77466;SDS011;66564;42.482;25.548;2023-04-29T05:12:40;22.90;;;9.77;;
77466;SDS011;66564;42.482;25.548;2023-04-29T05:15:05;18.35;;;9.48;;
77466;SDS011;66564;42.482;25.548;2023-04-29T05:17:31;23.55;;;9.27;;
77466;SDS011;66564;42.482;25.548;2023-04-29T05:19:58;21.35;;;7.97;;
77466;SDS011;66564;42.482;25.548;2023-04-29T05:22:24;13.93;;;7.50;;
77466;SDS011;66564;42.482;25.548;2023-04-29T05:24:50;16.35;;;7.90;;
77466;SDS011;66564;42.482;25.548;2023-04-29T05:27:16;14.95;;;8.38;;
77466;SDS011;66564;42.482;25.548;2023-04-29T05:29:42;14.07;;;6.40;;
77466;SDS011;66564;42.482;25.548;2023-04-29T05:32:08;22.90;;;6.97;;
77466;SDS011;66564;42.482;25.548;2023-04-29T05:34:34;10.32;;;6.05;;
77466;SDS011;66564;42.482;25.548;2023-04-29T05:36:59;14.25;;;7.22;;
77466;SDS011;66564;42.482;25.548;2023-04-29T05:39:24;19.17;;;8.95;;
77466;SDS011;66564;42.482;25.548;2023-04-29T05:41:50;18.10;;;7.70;;
77466;SDS011;66564;42.482;25.548;2023-04-29T05:44:16;14.98;;;6.50;;
77466;SDS011;66564;42.482;25.548;2023-04-29T05:46:42;15.85;;;6.10;;
77466;SDS011;66564;42.482;25.548;2023-04-29T05:49:07;16.05;;;6.93;;
77466;SDS011;66564;42.482;25.548;2023-04-29T05:51:33;13.48;;;5.97;;
77466;SDS011;66564;42.482;25.548;2023-04-29T05:53:59;12.75;;;5.70;;
77466;SDS011;66564;42.482;25.548;2023-04-29T05:56:24;11.45;;;5.90;;
77466;SDS011;66564;42.482;25.548;2023-04-29T05:58:50;8.82;;;6.53;;
77466;SDS011;66564;42.482;25.548;2023-04-29T06:01:16;15.45;;;7.20;;
77466;SDS011;66564;42.482;25.548;2023-04-29T06:03:41;13.90;;;5.80;;
77466;SDS011;66564;42.482;25.548;2023-04-29T06:06:07;13.27;;;6.75;;
77466;SDS011;66564;42.482;25.548;2023-04-29T06:08:33;10.25;;;6.28;;
77466;SDS011;66564;42.482;25.548;2023-04-29T06:11:02;12.43;;;5.80;;
77466;SDS011;66564;42.482;25.548;2023-04-29T06:13:29;12.95;;;6.57;;
77466;SDS011;66564;42.482;25.548;2023-04-29T06:15:56;9.82;;;5.97;;
77466;SDS011;66564;42.482;25.548;2023-04-29T06:18:21;10.98;;;5.75;;
77466;SDS011;66564;42.482;25.548;2023-04-29T06:20:47;11.80;;;5.85;;
77466;SDS011;66564;42.482;25.548;2023-04-29T06:23:12;9.80;;;5.63;;
77466;SDS011;66564;42.482;25.548;2023-04-29T06:25:38;8.85;;;5.53;;
77466;SDS011;66564;42.482;25.548;2023-04-29T06:28:04;13.98;;;5.90;;
77466;SDS011;66564;42.482;25.548;2023-04-29T06:30:32;9.40;;;5.50;;
77466;SDS011;66564;42.482;25.548;2023-04-29T06:32:58;8.80;;;5.75;;
77466;SDS011;66564;42.482;25.548;2023-04-29T06:35:23;11.45;;;5.78;;
77466;SDS011;66564;42.482;25.548;2023-04-29T06:37:49;8.75;;;5.30;;
77466;SDS011;66564;42.482;25.548;2023-04-29T06:40:14;11.95;;;6.47;;
77466;SDS011;66564;42.482;25.548;2023-04-29T06:42:40;8.40;;;5.72;;
77466;SDS011;66564;42.482;25.548;2023-04-29T06:45:07;8.02;;;5.32;;
77466;SDS011;66564;42.482;25.548;2023-04-29T06:47:33;9.05;;;5.78;;
77466;SDS011;66564;42.482;25.548;2023-04-29T06:49:58;16.67;;;5.70;;
77466;SDS011;66564;42.482;25.548;2023-04-29T06:52:24;10.95;;;5.60;;
77466;SDS011;66564;42.482;25.548;2023-04-29T06:54:50;8.55;;;5.85;;
77466;SDS011;66564;42.482;25.548;2023-04-29T06:57:16;10.25;;;5.65;;
77466;SDS011;66564;42.482;25.548;2023-04-29T06:59:41;9.68;;;5.00;;
77466;SDS011;66564;42.482;25.548;2023-04-29T07:02:07;10.80;;;5.10;;
77466;SDS011;66564;42.482;25.548;2023-04-29T07:04:32;13.48;;;5.28;;
77466;SDS011;66564;42.482;25.548;2023-04-29T07:06:58;8.35;;;5.28;;
77466;SDS011;66564;42.482;25.548;2023-04-29T07:09:23;9.50;;;4.80;;
77466;SDS011;66564;42.482;25.548;2023-04-29T07:11:51;7.03;;;4.40;;
77466;SDS011;66564;42.482;25.548;2023-04-29T07:14:17;10.88;;;5.65;;
77466;SDS011;66564;42.482;25.548;2023-04-29T07:16:42;12.02;;;5.00;;
77466;SDS011;66564;42.482;25.548;2023-04-29T07:19:08;11.95;;;5.15;;
77466;SDS011;66564;42.482;25.548;2023-04-29T07:21:34;14.43;;;6.93;;
77466;SDS011;66564;42.482;25.548;2023-04-29T07:23:59;14.63;;;5.53;;
77466;SDS011;66564;42.482;25.548;2023-04-29T07:26:26;24.25;;;6.55;;
77466;SDS011;66564;42.482;25.548;2023-04-29T07:28:52;15.15;;;5.85;;
77466;SDS011;66564;42.482;25.548;2023-04-29T07:31:18;7.05;;;4.93;;
77466;SDS011;66564;42.482;25.548;2023-04-29T07:33:44;20.52;;;7.18;;
77466;SDS011;66564;42.482;25.548;2023-04-29T07:36:10;11.15;;;4.80;;
77466;SDS011;66564;42.482;25.548;2023-04-29T07:38:36;9.77;;;5.13;;
77466;SDS011;66564;42.482;25.548;2023-04-29T07:41:02;20.92;;;5.78;;
77466;SDS011;66564;42.482;25.548;2023-04-29T07:43:31;17.10;;;4.90;;
77466;SDS011;66564;42.482;25.548;2023-04-29T07:45:56;10.07;;;4.70;;
77466;SDS011;66564;42.482;25.548;2023-04-29T07:48:21;9.45;;;4.90;;
77466;SDS011;66564;42.482;25.548;2023-04-29T07:50:47;29.95;;;8.15;;
77466;SDS011;66564;42.482;25.548;2023-04-29T07:53:13;13.40;;;6.05;;
77466;SDS011;66564;42.482;25.548;2023-04-29T07:55:40;11.00;;;5.80;;
77466;SDS011;66564;42.482;25.548;2023-04-29T07:58:05;9.05;;;5.55;;
77466;SDS011;66564;42.482;25.548;2023-04-29T08:00:31;7.15;;;4.28;;
77466;SDS011;66564;42.482;25.548;2023-04-29T08:02:57;12.68;;;4.88;;
77466;SDS011;66564;42.482;25.548;2023-04-29T08:05:23;11.07;;;4.97;;
77466;SDS011;66564;42.482;25.548;2023-04-29T08:07:48;8.35;;;5.10;;
77466;SDS011;66564;42.482;25.548;2023-04-29T08:10:15;8.75;;;4.70;;
77466;SDS011;66564;42.482;25.548;2023-04-29T08:12:41;8.25;;;4.60;;
77466;SDS011;66564;42.482;25.548;2023-04-29T08:15:06;8.48;;;4.72;;
77466;SDS011;66564;42.482;25.548;2023-04-29T08:17:32;9.18;;;5.05;;
77466;SDS011;66564;42.482;25.548;2023-04-29T08:19:58;10.30;;;5.00;;
77466;SDS011;66564;42.482;25.548;2023-04-29T08:22:25;7.57;;;4.60;;
77466;SDS011;66564;42.482;25.548;2023-04-29T08:25:00;8.95;;;5.38;;
77466;SDS011;66564;42.482;25.548;2023-04-29T08:28:04;11.05;;;5.32;;
77466;SDS011;66564;42.482;25.548;2023-04-29T08:30:31;9.65;;;4.90;;
77466;SDS011;66564;42.482;25.548;2023-04-29T08:33:01;9.75;;;5.13;;
77466;SDS011;66564;42.482;25.548;2023-04-29T08:35:26;6.57;;;4.55;;
77466;SDS011;66564;42.482;25.548;2023-04-29T08:37:52;6.68;;;4.32;;
77466;SDS011;66564;42.482;25.548;2023-04-29T08:40:18;8.43;;;5.00;;
77466;SDS011;66564;42.482;25.548;2023-04-29T08:42:43;8.57;;;5.07;;
77466;SDS011;66564;42.482;25.548;2023-04-29T08:46:09;13.80;;;4.85;;
77466;SDS011;66564;42.482;25.548;2023-04-29T08:49:34;8.57;;;4.63;;
77466;SDS011;66564;42.482;25.548;2023-04-29T08:52:59;7.97;;;4.95;;
77466;SDS011;66564;42.482;25.548;2023-04-29T08:56:24;10.32;;;5.20;;
77466;SDS011;66564;42.482;25.548;2023-04-29T08:59:49;9.90;;;5.63;;
77466;SDS011;66564;42.482;25.548;2023-04-29T09:02:15;7.55;;;5.50;;
77466;SDS011;66564;42.482;25.548;2023-04-29T09:05:52;9.43;;;5.00;;
77466;SDS011;66564;42.482;25.548;2023-04-29T09:09:15;12.90;;;6.82;;
77466;SDS011;66564;42.482;25.548;2023-04-29T09:11:41;10.93;;;5.45;;
77466;SDS011;66564;42.482;25.548;2023-04-29T09:14:08;8.77;;;4.43;;
77466;SDS011;66564;42.482;25.548;2023-04-29T09:16:34;6.45;;;4.38;;
77466;SDS011;66564;42.482;25.548;2023-04-29T09:19:02;11.15;;;4.95;;
77466;SDS011;66564;42.482;25.548;2023-04-29T09:21:28;7.55;;;4.68;;
77466;SDS011;66564;42.482;25.548;2023-04-29T09:23:57;12.63;;;5.22;;
77466;SDS011;66564;42.482;25.548;2023-04-29T09:26:26;7.88;;;4.60;;
77466;SDS011;66564;42.482;25.548;2023-04-29T09:29:05;10.07;;;5.38;;
77466;SDS011;66564;42.482;25.548;2023-04-29T09:32:30;7.82;;;4.82;;
77466;SDS011;66564;42.482;25.548;2023-04-29T09:34:58;10.80;;;4.70;;
77466;SDS011;66564;42.482;25.548;2023-04-29T09:37:26;7.93;;;4.95;;
77466;SDS011;66564;42.482;25.548;2023-04-29T09:39:52;11.70;;;4.78;;
77466;SDS011;66564;42.482;25.548;2023-04-29T09:42:18;9.82;;;4.28;;
77466;SDS011;66564;42.482;25.548;2023-04-29T09:44:44;6.78;;;4.60;;
77466;SDS011;66564;42.482;25.548;2023-04-29T09:47:10;6.93;;;4.55;;
77466;SDS011;66564;42.482;25.548;2023-04-29T09:49:41;6.80;;;4.35;;
77466;SDS011;66564;42.482;25.548;2023-04-29T09:52:10;10.50;;;5.03;;
77466;SDS011;66564;42.482;25.548;2023-04-29T09:54:38;10.02;;;4.70;;
77466;SDS011;66564;42.482;25.548;2023-04-29T09:57:05;9.45;;;4.97;;
77466;SDS011;66564;42.482;25.548;2023-04-29T09:59:41;9.15;;;4.70;;
77466;SDS011;66564;42.482;25.548;2023-04-29T10:02:58;5.97;;;4.43;;
77466;SDS011;66564;42.482;25.548;2023-04-29T10:06:22;9.45;;;4.40;;
77466;SDS011;66564;42.482;25.548;2023-04-29T10:09:50;11.07;;;5.38;;
77466;SDS011;66564;42.482;25.548;2023-04-29T10:12:21;11.10;;;5.05;;
77466;SDS011;66564;42.482;25.548;2023-04-29T10:15:48;9.02;;;4.72;;
77466;SDS011;66564;42.482;25.548;2023-04-29T10:19:24;9.52;;;4.60;;
77466;SDS011;66564;42.482;25.548;2023-04-29T10:22:52;11.25;;;4.93;;
77466;SDS011;66564;42.482;25.548;2023-04-29T10:26:17;9.32;;;4.95;;
77466;SDS011;66564;42.482;25.548;2023-04-29T10:29:42;8.25;;;4.95;;
77466;SDS011;66564;42.482;25.548;2023-04-29T10:33:07;8.73;;;4.78;;
77466;SDS011;66564;42.482;25.548;2023-04-29T10:36:35;8.75;;;5.07;;
77466;SDS011;66564;42.482;25.548;2023-04-29T10:42:58;9.07;;;4.90;;
77466;SDS011;66564;42.482;25.548;2023-04-29T10:46:24;11.65;;;5.10;;
77466;SDS011;66564;42.482;25.548;2023-04-29T10:50:01;9.05;;;5.47;;
77466;SDS011;66564;42.482;25.548;2023-04-29T10:53:23;7.95;;;5.03;;
77466;SDS011;66564;42.482;25.548;2023-04-29T10:56:52;15.57;;;5.10;;
77466;SDS011;66564;42.482;25.548;2023-04-29T11:00:27;9.90;;;5.15;;
77466;SDS011;66564;42.482;25.548;2023-04-29T11:03:52;7.57;;;5.00;;
77466;SDS011;66564;42.482;25.548;2023-04-29T11:07:26;7.47;;;4.70;;
77466;SDS011;66564;42.482;25.548;2023-04-29T11:10:51;15.13;;;5.68;;
77466;SDS011;66564;42.482;25.548;2023-04-29T11:14:20;8.13;;;5.18;;
77466;SDS011;66564;42.482;25.548;2023-04-29T11:17:24;12.85;;;5.88;;
77466;SDS011;66564;42.482;25.548;2023-04-29T11:23:30;7.63;;;4.93;;
77466;SDS011;66564;42.482;25.548;2023-04-29T11:26:58;10.57;;;5.65;;
77466;SDS011;66564;42.482;25.548;2023-04-29T11:30:03;11.15;;;5.43;;
77466;SDS011;66564;42.482;25.548;2023-04-29T11:32:33;20.80;;;5.18;;
77466;SDS011;66564;42.482;25.548;2023-04-29T11:35:56;10.40;;;5.68;;
77466;SDS011;66564;42.482;25.548;2023-04-29T11:38:25;10.60;;;5.18;;
77466;SDS011;66564;42.482;25.548;2023-04-29T11:40:51;9.60;;;4.95;;
77466;SDS011;66564;42.482;25.548;2023-04-29T11:43:18;12.27;;;5.55;;
77466;SDS011;66564;42.482;25.548;2023-04-29T11:45:45;10.10;;;5.07;;
77466;SDS011;66564;42.482;25.548;2023-04-29T11:48:20;8.60;;;4.65;;
77466;SDS011;66564;42.482;25.548;2023-04-29T11:50:50;8.60;;;5.28;;
77466;SDS011;66564;42.482;25.548;2023-04-29T11:55:46;11.43;;;5.65;;
77466;SDS011;66564;42.482;25.548;2023-04-29T11:58:13;7.03;;;4.88;;
77466;SDS011;66564;42.482;25.548;2023-04-29T12:00:42;11.93;;;5.40;;
77466;SDS011;66564;42.482;25.548;2023-04-29T12:04:07;10.13;;;5.00;;
77466;SDS011;66564;42.482;25.548;2023-04-29T12:07:32;9.00;;;6.15;;
77466;SDS011;66564;42.482;25.548;2023-04-29T12:11:00;8.13;;;5.03;;
77466;SDS011;66564;42.482;25.548;2023-04-29T12:14:25;7.63;;;4.97;;
77466;SDS011;66564;42.482;25.548;2023-04-29T12:17:50;9.65;;;5.50;;
77466;SDS011;66564;42.482;25.548;2023-04-29T12:21:16;12.35;;;5.80;;
77466;SDS011;66564;42.482;25.548;2023-04-29T12:24:42;10.50;;;5.68;;
77466;SDS011;66564;42.482;25.548;2023-04-29T12:28:13;26.63;;;6.80;;
77466;SDS011;66564;42.482;25.548;2023-04-29T12:31:36;9.40;;;5.05;;
77466;SDS011;66564;42.482;25.548;2023-04-29T12:34:04;8.32;;;4.63;;
77466;SDS011;66564;42.482;25.548;2023-04-29T12:37:30;12.82;;;6.68;;
77466;SDS011;66564;42.482;25.548;2023-04-29T12:40:57;14.88;;;5.03;;
77466;SDS011;66564;42.482;25.548;2023-04-29T12:44:20;9.88;;;5.40;;
77466;SDS011;66564;42.482;25.548;2023-04-29T12:47:45;10.18;;;5.32;;
77466;SDS011;66564;42.482;25.548;2023-04-29T12:51:11;14.20;;;5.15;;
77466;SDS011;66564;42.482;25.548;2023-04-29T12:53:36;12.25;;;5.65;;
77466;SDS011;66564;42.482;25.548;2023-04-29T12:57:02;10.25;;;5.07;;
77466;SDS011;66564;42.482;25.548;2023-04-29T13:00:27;8.32;;;5.40;;
77466;SDS011;66564;42.482;25.548;2023-04-29T13:03:52;7.53;;;5.18;;
77466;SDS011;66564;42.482;25.548;2023-04-29T13:06:17;6.22;;;4.75;;
77466;SDS011;66564;42.482;25.548;2023-04-29T13:08:43;9.55;;;4.80;;
77466;SDS011;66564;42.482;25.548;2023-04-29T13:11:09;6.97;;;4.85;;
77466;SDS011;66564;42.482;25.548;2023-04-29T13:13:35;8.13;;;4.63;;
77466;SDS011;66564;42.482;25.548;2023-04-29T13:16:00;8.20;;;5.03;;
77466;SDS011;66564;42.482;25.548;2023-04-29T13:18:28;11.75;;;5.25;;
77466;SDS011;66564;42.482;25.548;2023-04-29T13:20:54;8.77;;;5.10;;
77466;SDS011;66564;42.482;25.548;2023-04-29T13:23:19;13.18;;;6.43;;
77466;SDS011;66564;42.482;25.548;2023-04-29T13:25:45;7.47;;;5.10;;
77466;SDS011;66564;42.482;25.548;2023-04-29T13:28:12;8.30;;;4.57;;
77466;SDS011;66564;42.482;25.548;2023-04-29T13:30:37;10.18;;;5.15;;
77466;SDS011;66564;42.482;25.548;2023-04-29T13:33:03;8.82;;;4.40;;
77466;SDS011;66564;42.482;25.548;2023-04-29T13:35:28;8.27;;;4.90;;
77466;SDS011;66564;42.482;25.548;2023-04-29T13:37:54;7.65;;;4.78;;
77466;SDS011;66564;42.482;25.548;2023-04-29T13:40:21;11.00;;;4.80;;
77466;SDS011;66564;42.482;25.548;2023-04-29T13:42:46;9.93;;;4.95;;
77466;SDS011;66564;42.482;25.548;2023-04-29T13:45:13;20.60;;;6.45;;
77466;SDS011;66564;42.482;25.548;2023-04-29T13:47:41;10.52;;;4.70;;
77466;SDS011;66564;42.482;25.548;2023-04-29T13:51:06;11.25;;;5.53;;
77466;SDS011;66564;42.482;25.548;2023-04-29T13:54:32;8.77;;;5.00;;
77466;SDS011;66564;42.482;25.548;2023-04-29T13:57:57;12.32;;;5.30;;
77466;SDS011;66564;42.482;25.548;2023-04-29T14:01:22;9.10;;;5.53;;
77466;SDS011;66564;42.482;25.548;2023-04-29T14:04:47;15.90;;;5.40;;
77466;SDS011;66564;42.482;25.548;2023-04-29T14:07:12;8.00;;;5.20;;
77466;SDS011;66564;42.482;25.548;2023-04-29T14:09:38;7.50;;;4.88;;
77466;SDS011;66564;42.482;25.548;2023-04-29T14:12:04;10.35;;;5.53;;
77466;SDS011;66564;42.482;25.548;2023-04-29T14:14:33;9.15;;;5.22;;
77466;SDS011;66564;42.482;25.548;2023-04-29T14:16:59;9.98;;;4.72;;
77466;SDS011;66564;42.482;25.548;2023-04-29T14:19:25;12.32;;;5.53;;
77466;SDS011;66564;42.482;25.548;2023-04-29T14:21:51;9.43;;;4.80;;
77466;SDS011;66564;42.482;25.548;2023-04-29T14:24:16;10.75;;;5.18;;
77466;SDS011;66564;42.482;25.548;2023-04-29T14:26:42;7.43;;;4.90;;
77466;SDS011;66564;42.482;25.548;2023-04-29T14:29:07;12.95;;;5.60;;
77466;SDS011;66564;42.482;25.548;2023-04-29T14:31:33;9.02;;;5.50;;
77466;SDS011;66564;42.482;25.548;2023-04-29T14:34:03;6.55;;;4.88;;
77466;SDS011;66564;42.482;25.548;2023-04-29T14:36:31;9.07;;;5.30;;
77466;SDS011;66564;42.482;25.548;2023-04-29T14:38:57;11.52;;;4.95;;
77466;SDS011;66564;42.482;25.548;2023-04-29T14:41:23;7.65;;;4.82;;
77466;SDS011;66564;42.482;25.548;2023-04-29T14:43:51;8.40;;;4.90;;
77466;SDS011;66564;42.482;25.548;2023-04-29T14:48:53;8.48;;;6.03;;
77466;SDS011;66564;42.482;25.548;2023-04-29T14:51:19;9.15;;;5.10;;
77466;SDS011;66564;42.482;25.548;2023-04-29T14:53:44;8.10;;;4.95;;
77466;SDS011;66564;42.482;25.548;2023-04-29T14:56:15;9.18;;;4.85;;
77466;SDS011;66564;42.482;25.548;2023-04-29T14:58:48;9.02;;;4.75;;
77466;SDS011;66564;42.482;25.548;2023-04-29T15:01:13;15.70;;;5.35;;
77466;SDS011;66564;42.482;25.548;2023-04-29T15:03:39;13.60;;;5.85;;
77466;SDS011;66564;42.482;25.548;2023-04-29T15:06:05;8.23;;;5.55;;
77466;SDS011;66564;42.482;25.548;2023-04-29T15:09:14;12.93;;;4.75;;
77466;SDS011;66564;42.482;25.548;2023-04-29T15:12:40;10.70;;;4.82;;
77466;SDS011;66564;42.482;25.548;2023-04-29T15:16:05;18.58;;;12.52;;
77466;SDS011;66564;42.482;25.548;2023-04-29T15:19:33;18.25;;;12.05;;
77466;SDS011;66564;42.482;25.548;2023-04-29T15:22:59;8.85;;;6.20;;
77466;SDS011;66564;42.482;25.548;2023-04-29T15:26:24;12.40;;;7.63;;
77466;SDS011;66564;42.482;25.548;2023-04-29T15:29:38;15.85;;;6.95;;
77466;SDS011;66564;42.482;25.548;2023-04-29T15:33:03;10.48;;;5.60;;
77466;SDS011;66564;42.482;25.548;2023-04-29T15:36:29;10.70;;;4.78;;
77466;SDS011;66564;42.482;25.548;2023-04-29T15:39:54;8.07;;;4.95;;
77466;SDS011;66564;42.482;25.548;2023-04-29T15:43:19;7.50;;;5.55;;
77466;SDS011;66564;42.482;25.548;2023-04-29T15:46:44;18.00;;;5.80;;
77466;SDS011;66564;42.482;25.548;2023-04-29T15:50:09;11.40;;;5.32;;
77466;SDS011;66564;42.482;25.548;2023-04-29T15:53:34;10.57;;;4.90;;
77466;SDS011;66564;42.482;25.548;2023-04-29T15:57:00;13.10;;;5.07;;